Decoded Metar for YWGT (WANGARATTA ARP in _UNIDENTIFIED) (IATA:WGT) | Meteo·Mobile Aviation Weather
aviador You're here:

YWGT Decoded Metar

WANGARATTA ARP in _UNIDENTIFIED
Report Time2018-11-19 04:00:00
UTC Time2018-11-19 04:44:48
Flight Rules unknown UNKNOWN
Wind010° at 12 kt
W.Decomp.*RWY 36: 12.0 kt HW 0.2 kt LCW
RWY 27: 0.2 kt HW 12.0 kt RCW
W.Rank010° ranks 7
Current wind is above 010° avg. (7.6)
VisibilityN/A
Phenomena:N/A
Clouds:N/A
Expected CloudBase > 9,600 ft AGL from Temp-Dew spread
CeilingNone
Temp29°C (ISA +15)
Dew Point05°C (22% RH)
Heat Index27.5°C
AAT23.6°C
QNH1014 hPa
Density Alt2,313 ft
Elevation502 ft
Report Wrong Elevation
Raw Report
YWGT 190400Z AUTO 01012KT 310V030 //// // NCD 29/05 Q1014=

Extra information for YWGT:More info

Metar Taf Metar & Taf Last 4 Metars F.Rules Stats Wind Profile Meteogram Temp Stats Airport Information Weather charts Add Link Nearby VenuesMetar ALERT Operation Metar Decoded Social comments